sensor_id;sensor_type;location;lat;lon;timestamp;pressure;altitude;pressure_sealevel;temperature;humidity
44044;BME280;29709;52.396;16.796;2022-11-20T00:01:34;101256.57;;;0.98;76.33
44044;BME280;29709;52.396;16.796;2022-11-20T00:04:38;101253.37;;;0.91;76.61
44044;BME280;29709;52.396;16.796;2022-11-20T00:07:42;101257.25;;;0.87;76.54
44044;BME280;29709;52.396;16.796;2022-11-20T00:11:15;101268.17;;;0.85;77.13
44044;BME280;29709;52.396;16.796;2022-11-20T00:14:19;101268.27;;;0.84;77.05
44044;BME280;29709;52.396;16.796;2022-11-20T00:17:22;101267.98;;;0.89;77.12
44044;BME280;29709;52.396;16.796;2022-11-20T00:20:25;101279.09;;;0.84;77.44
44044;BME280;29709;52.396;16.796;2022-11-20T00:23:28;101276.19;;;0.87;77.59
44044;BME280;29709;52.396;16.796;2022-11-20T00:26:33;101265.06;;;0.92;77.15
44044;BME280;29709;52.396;16.796;2022-11-20T00:29:36;101269.60;;;0.91;77.36
44044;BME280;29709;52.396;16.796;2022-11-20T00:32:39;101269.60;;;0.91;77.33
44044;BME280;29709;52.396;16.796;2022-11-20T00:35:42;101277.73;;;0.91;77.09
44044;BME280;29709;52.396;16.796;2022-11-20T00:38:46;101270.58;;;0.90;77.30
44044;BME280;29709;52.396;16.796;2022-11-20T00:42:14;101272.02;;;0.81;77.00
44044;BME280;29709;52.396;16.796;2022-11-20T00:45:17;101271.34;;;0.78;77.29
44044;BME280;29709;52.396;16.796;2022-11-20T00:48:20;101271.91;;;0.83;77.31
44044;BME280;29709;52.396;16.796;2022-11-20T00:51:25;101276.75;;;0.78;77.47
44044;BME280;29709;52.396;16.796;2022-11-20T00:54:28;101283.23;;;0.75;77.26
44044;BME280;29709;52.396;16.796;2022-11-20T00:57:31;101283.13;;;0.77;77.70
44044;BME280;29709;52.396;16.796;2022-11-20T01:00:35;101280.52;;;0.75;77.67
44044;BME280;29709;52.396;16.796;2022-11-20T01:03:41;101275.77;;;0.65;77.82
44044;BME280;29709;52.396;16.796;2022-11-20T01:06:44;101277.00;;;0.59;78.31
44044;BME280;29709;52.396;16.796;2022-11-20T01:10:16;101277.70;;;0.63;78.37
44044;BME280;29709;52.396;16.796;2022-11-20T01:13:20;101278.18;;;0.69;77.94
44044;BME280;29709;52.396;16.796;2022-11-20T01:16:37;101268.23;;;0.70;77.84
44044;BME280;29709;52.396;16.796;2022-11-20T01:19:40;101266.49;;;0.69;77.52
44044;BME280;29709;52.396;16.796;2022-11-20T01:22:43;101263.11;;;0.65;77.79
44044;BME280;29709;52.396;16.796;2022-11-20T01:25:46;101269.96;;;0.71;77.86
44044;BME280;29709;52.396;16.796;2022-11-20T01:28:50;101274.60;;;0.69;77.56
44044;BME280;29709;52.396;16.796;2022-11-20T01:31:53;101275.00;;;0.63;78.04
44044;BME280;29709;52.396;16.796;2022-11-20T01:35:22;101271.88;;;0.54;78.12
44044;BME280;29709;52.396;16.796;2022-11-20T01:38:25;101278.42;;;0.50;78.36
44044;BME280;29709;52.396;16.796;2022-11-20T01:41:30;101269.53;;;0.48;78.60
44044;BME280;29709;52.396;16.796;2022-11-20T01:44:51;101279.67;;;0.45;78.65
44044;BME280;29709;52.396;16.796;2022-11-20T01:47:54;101279.06;;;0.40;78.71
44044;BME280;29709;52.396;16.796;2022-11-20T01:50:58;101281.37;;;0.32;79.21
44044;BME280;29709;52.396;16.796;2022-11-20T01:54:06;101280.48;;;0.31;79.15
44044;BME280;29709;52.396;16.796;2022-11-20T01:57:36;101279.70;;;0.29;79.46
44044;BME280;29709;52.396;16.796;2022-11-20T02:00:41;101276.84;;;0.32;79.60
44044;BME280;29709;52.396;16.796;2022-11-20T02:03:44;101272.89;;;0.38;79.52
44044;BME280;29709;52.396;16.796;2022-11-20T02:06:51;101270.08;;;0.39;79.79
44044;BME280;29709;52.396;16.796;2022-11-20T02:09:57;101264.77;;;0.38;79.32
44044;BME280;29709;52.396;16.796;2022-11-20T02:13:00;101261.29;;;0.36;79.35
44044;BME280;29709;52.396;16.796;2022-11-20T02:19:56;101266.95;;;0.31;79.76
44044;BME280;29709;52.396;16.796;2022-11-20T02:23:28;101263.99;;;0.36;79.76
44044;BME280;29709;52.396;16.796;2022-11-20T02:26:15;101261.29;;;0.36;79.82
44044;BME280;29709;52.396;16.796;2022-11-20T02:29:24;101264.19;;;0.33;79.86
44044;BME280;29709;52.396;16.796;2022-11-20T02:32:31;101254.51;;;0.28;80.15
44044;BME280;29709;52.396;16.796;2022-11-20T02:35:42;101258.95;;;0.29;80.23
44044;BME280;29709;52.396;16.796;2022-11-20T02:38:45;101258.08;;;0.29;80.42
44044;BME280;29709;52.396;16.796;2022-11-20T02:42:13;101265.50;;;0.25;80.60
44044;BME280;29709;52.396;16.796;2022-11-20T02:45:17;101262.71;;;0.27;80.61
44044;BME280;29709;52.396;16.796;2022-11-20T02:48:20;101249.88;;;0.31;80.75
44044;BME280;29709;52.396;16.796;2022-11-20T02:51:23;101256.34;;;0.28;80.89
44044;BME280;29709;52.396;16.796;2022-11-20T02:54:26;101257.63;;;0.37;80.89
44044;BME280;29709;52.396;16.796;2022-11-20T02:57:30;101252.99;;;0.39;80.80
44044;BME280;29709;52.396;16.796;2022-11-20T03:00:33;101252.83;;;0.42;80.97
44044;BME280;29709;52.396;16.796;2022-11-20T03:03:37;101243.45;;;0.47;80.84
44044;BME280;29709;52.396;16.796;2022-11-20T03:06:40;101250.60;;;0.48;80.50
44044;BME280;29709;52.396;16.796;2022-11-20T03:09:43;101244.13;;;0.51;80.65
44044;BME280;29709;52.396;16.796;2022-11-20T03:13:13;101245.97;;;0.50;80.63
44044;BME280;29709;52.396;16.796;2022-11-20T03:16:19;101240.56;;;0.50;80.51
44044;BME280;29709;52.396;16.796;2022-11-20T03:19:23;101247.03;;;0.48;80.32
44044;BME280;29709;52.396;16.796;2022-11-20T03:22:29;101245.09;;;0.50;80.78
44044;BME280;29709;52.396;16.796;2022-11-20T03:25:32;101243.87;;;0.55;80.50
44044;BME280;29709;52.396;16.796;2022-11-20T03:28:35;101241.63;;;0.62;80.61
44044;BME280;29709;52.396;16.796;2022-11-20T03:31:40;101237.50;;;0.71;80.47
44044;BME280;29709;52.396;16.796;2022-11-20T03:34:43;101240.98;;;0.73;80.39
44044;BME280;29709;52.396;16.796;2022-11-20T03:37:46;101232.69;;;0.76;80.18
44044;BME280;29709;52.396;16.796;2022-11-20T03:41:20;101247.19;;;0.75;80.26
44044;BME280;29709;52.396;16.796;2022-11-20T03:44:24;101245.92;;;0.80;80.16
44044;BME280;29709;52.396;16.796;2022-11-20T03:47:27;101254.91;;;0.81;80.23
44044;BME280;29709;52.396;16.796;2022-11-20T03:50:29;101244.08;;;0.81;80.24
44044;BME280;29709;52.396;16.796;2022-11-20T03:53:32;101240.41;;;0.82;79.82
44044;BME280;29709;52.396;16.796;2022-11-20T03:56:37;101235.70;;;0.85;80.12
44044;BME280;29709;52.396;16.796;2022-11-20T03:59:41;101228.25;;;0.89;79.92
44044;BME280;29709;52.396;16.796;2022-11-20T04:02:45;101233.47;;;0.92;79.99
44044;BME280;29709;52.396;16.796;2022-11-20T04:05:48;101232.80;;;0.89;79.70
44044;BME280;29709;52.396;16.796;2022-11-20T04:08:53;101236.37;;;0.89;80.08
44044;BME280;29709;52.396;16.796;2022-11-20T04:12:21;101246.32;;;0.89;79.73
44044;BME280;29709;52.396;16.796;2022-11-20T04:15:24;101253.94;;;0.82;79.61
44044;BME280;29709;52.396;16.796;2022-11-20T04:18:27;101244.95;;;0.81;80.17
44044;BME280;29709;52.396;16.796;2022-11-20T04:21:30;101244.59;;;0.88;80.30
44044;BME280;29709;52.396;16.796;2022-11-20T04:24:33;101240.14;;;0.86;79.80
44044;BME280;29709;52.396;16.796;2022-11-20T04:27:36;101238.66;;;0.81;79.78
44044;BME280;29709;52.396;16.796;2022-11-20T04:30:39;101235.50;;;0.74;80.04
44044;BME280;29709;52.396;16.796;2022-11-20T04:33:43;101243.52;;;0.76;80.12
44044;BME280;29709;52.396;16.796;2022-11-20T04:36:46;101232.80;;;0.74;80.10
44044;BME280;29709;52.396;16.796;2022-11-20T04:39:49;101238.66;;;0.81;80.33
44044;BME280;29709;52.396;16.796;2022-11-20T04:42:52;101231.43;;;0.81;80.04
44044;BME280;29709;52.396;16.796;2022-11-20T04:46:21;101228.14;;;0.76;80.29
44044;BME280;29709;52.396;16.796;2022-11-20T04:49:24;101226.21;;;0.78;80.60
44044;BME280;29709;52.396;16.796;2022-11-20T04:52:27;101223.41;;;0.80;80.16
44044;BME280;29709;52.396;16.796;2022-11-20T04:55:30;101218.30;;;0.75;80.30
44044;BME280;29709;52.396;16.796;2022-11-20T04:58:33;101219.83;;;0.79;80.65
44044;BME280;29709;52.396;16.796;2022-11-20T05:01:36;101218.40;;;0.88;80.35
44044;BME280;29709;52.396;16.796;2022-11-20T05:04:39;101216.45;;;0.90;79.98
44044;BME280;29709;52.396;16.796;2022-11-20T05:07:42;101217.02;;;0.81;80.02
44044;BME280;29709;52.396;16.796;2022-11-20T05:10:45;101214.52;;;0.78;80.05
44044;BME280;29709;52.396;16.796;2022-11-20T05:13:49;101214.83;;;0.73;80.36
44044;BME280;29709;52.396;16.796;2022-11-20T05:17:21;101216.56;;;0.74;80.22
44044;BME280;29709;52.396;16.796;2022-11-20T05:20:24;101221.00;;;0.75;80.39
44044;BME280;29709;52.396;16.796;2022-11-20T05:23:28;101220.91;;;0.77;80.15
44044;BME280;29709;52.396;16.796;2022-11-20T05:26:32;101220.04;;;0.76;80.62
44044;BME280;29709;52.396;16.796;2022-11-20T05:29:35;101222.55;;;0.79;80.28
44044;BME280;29709;52.396;16.796;2022-11-20T05:32:38;101223.03;;;0.86;79.91
44044;BME280;29709;52.396;16.796;2022-11-20T05:35:41;101219.17;;;0.76;79.55
44044;BME280;29709;52.396;16.796;2022-11-20T05:38:44;101211.91;;;0.76;79.89
44044;BME280;29709;52.396;16.796;2022-11-20T05:41:48;101204.94;;;0.72;79.77
44044;BME280;29709;52.396;16.796;2022-11-20T05:45:28;101220.50;;;0.69;79.96
44044;BME280;29709;52.396;16.796;2022-11-20T05:48:32;101214.62;;;0.76;80.00
44044;BME280;29709;52.396;16.796;2022-11-20T05:51:35;101215.77;;;0.72;79.69
44044;BME280;29709;52.396;16.796;2022-11-20T05:54:38;101207.95;;;0.68;79.80
44044;BME280;29709;52.396;16.796;2022-11-20T05:57:41;101210.75;;;0.66;79.53
44044;BME280;29709;52.396;16.796;2022-11-20T06:00:44;101209.78;;;0.67;79.73
44044;BME280;29709;52.396;16.796;2022-11-20T06:03:48;101214.99;;;0.70;79.50
44044;BME280;29709;52.396;16.796;2022-11-20T06:06:53;101213.16;;;0.71;79.51
44044;BME280;29709;52.396;16.796;2022-11-20T06:09:56;101222.70;;;0.62;79.45
44044;BME280;29709;52.396;16.796;2022-11-20T06:12:59;101226.57;;;0.58;79.49
44044;BME280;29709;52.396;16.796;2022-11-20T06:16:27;101221.52;;;0.52;79.67
44044;BME280;29709;52.396;16.796;2022-11-20T06:19:30;101226.87;;;0.53;79.60
44044;BME280;29709;52.396;16.796;2022-11-20T06:22:33;101231.41;;;0.53;79.42
44044;BME280;29709;52.396;16.796;2022-11-20T06:25:41;101232.28;;;0.53;79.44
44044;BME280;29709;52.396;16.796;2022-11-20T06:28:45;101230.45;;;0.54;79.47
44044;BME280;29709;52.396;16.796;2022-11-20T06:31:48;101234.98;;;0.53;79.27
44044;BME280;29709;52.396;16.796;2022-11-20T06:34:51;101227.53;;;0.43;78.89
44044;BME280;29709;52.396;16.796;2022-11-20T06:37:55;101229.52;;;0.39;78.94
44044;BME280;29709;52.396;16.796;2022-11-20T06:40:59;101221.71;;;0.35;78.73
44044;BME280;29709;52.396;16.796;2022-11-20T06:44:29;101217.26;;;0.34;78.74
44044;BME280;29709;52.396;16.796;2022-11-20T06:47:32;101216.87;;;0.40;78.87
44044;BME280;29709;52.396;16.796;2022-11-20T06:50:39;101219.41;;;0.43;78.54
44044;BME280;29709;52.396;16.796;2022-11-20T06:53:42;101217.95;;;0.51;78.82
44044;BME280;29709;52.396;16.796;2022-11-20T06:56:48;101216.51;;;0.46;77.80
44044;BME280;29709;52.396;16.796;2022-11-20T06:59:51;101216.41;;;0.47;77.93
44044;BME280;29709;52.396;16.796;2022-11-20T07:02:54;101213.91;;;0.44;77.55
44044;BME280;29709;52.396;16.796;2022-11-20T07:05:58;101212.65;;;0.50;77.29
44044;BME280;29709;52.396;16.796;2022-11-20T07:09:02;101201.83;;;0.50;77.24
44044;BME280;29709;52.396;16.796;2022-11-20T07:12:33;101213.80;;;0.46;76.82
44044;BME280;29709;52.396;16.796;2022-11-20T07:15:36;101216.62;;;0.44;76.76
44044;BME280;29709;52.396;16.796;2022-11-20T07:18:40;101220.95;;;0.47;76.29
44044;BME280;29709;52.396;16.796;2022-11-20T07:21:45;101212.16;;;0.43;76.04
44044;BME280;29709;52.396;16.796;2022-11-20T07:24:50;101209.08;;;0.49;76.00
44044;BME280;29709;52.396;16.796;2022-11-20T07:27:59;101213.80;;;0.46;75.44
44044;BME280;29709;52.396;16.796;2022-11-20T07:31:02;101207.44;;;0.47;75.51
44044;BME280;29709;52.396;16.796;2022-11-20T07:34:06;101213.52;;;0.50;75.24
44044;BME280;29709;52.396;16.796;2022-11-20T07:37:39;101210.64;;;0.53;75.22
44044;BME280;29709;52.396;16.796;2022-11-20T07:40:42;101208.00;;;0.52;75.15
44044;BME280;29709;52.396;16.796;2022-11-20T07:43:46;101202.13;;;0.60;75.01
44044;BME280;29709;52.396;16.796;2022-11-20T07:46:51;101194.99;;;0.58;74.89
44044;BME280;29709;52.396;16.796;2022-11-20T07:49:56;101196.83;;;0.58;74.85
44044;BME280;29709;52.396;16.796;2022-11-20T07:53:03;101193.34;;;0.56;74.82
44044;BME280;29709;52.396;16.796;2022-11-20T07:56:07;101192.89;;;0.64;74.50
44044;BME280;29709;52.396;16.796;2022-11-20T07:59:12;101186.97;;;0.57;74.75
44044;BME280;29709;52.396;16.796;2022-11-20T08:02:51;101178.75;;;0.58;74.55
44044;BME280;29709;52.396;16.796;2022-11-20T08:05:58;101174.92;;;0.63;74.76
44044;BME280;29709;52.396;16.796;2022-11-20T08:09:03;101184.97;;;0.75;74.76
44044;BME280;29709;52.396;16.796;2022-11-20T08:12:06;101181.46;;;0.73;74.48
44044;BME280;29709;52.396;16.796;2022-11-20T08:15:21;101182.83;;;0.66;74.54
44044;BME280;29709;52.396;16.796;2022-11-20T08:18:27;101176.05;;;0.73;74.44
44044;BME280;29709;52.396;16.796;2022-11-20T08:21:34;101175.57;;;0.80;74.47
44044;BME280;29709;52.396;16.796;2022-11-20T08:25:03;101176.94;;;0.88;74.40
44044;BME280;29709;52.396;16.796;2022-11-20T08:28:09;101165.25;;;0.87;74.13
44044;BME280;29709;52.396;16.796;2022-11-20T08:31:12;101168.05;;;0.85;73.76
44044;BME280;29709;52.396;16.796;2022-11-20T08:34:15;101165.05;;;0.90;73.87
44044;BME280;29709;52.396;16.796;2022-11-20T08:37:18;101166.67;;;0.93;73.59
44044;BME280;29709;52.396;16.796;2022-11-20T08:40:22;101163.10;;;1.06;73.85
44044;BME280;29709;52.396;16.796;2022-11-20T08:43:27;101159.49;;;1.20;73.71
44044;BME280;29709;52.396;16.796;2022-11-20T08:46:37;101163.49;;;1.41;73.22
44044;BME280;29709;52.396;16.796;2022-11-20T08:49:40;101154.52;;;1.41;73.10
44044;BME280;29709;52.396;16.796;2022-11-20T08:53:11;101161.19;;;1.35;72.50
44044;BME280;29709;52.396;16.796;2022-11-20T08:56:14;101162.85;;;1.38;72.81
44044;BME280;29709;52.396;16.796;2022-11-20T08:59:18;101158.46;;;1.50;72.39
44044;BME280;29709;52.396;16.796;2022-11-20T09:02:23;101162.41;;;1.58;72.24
44044;BME280;29709;52.396;16.796;2022-11-20T09:05:29;101162.80;;;1.52;71.90
44044;BME280;29709;52.396;16.796;2022-11-20T09:08:33;101159.11;;;1.53;71.21
44044;BME280;29709;52.396;16.796;2022-11-20T09:11:38;101158.46;;;1.50;71.37
44044;BME280;29709;52.396;16.796;2022-11-20T09:14:43;101156.77;;;1.61;71.71
44044;BME280;29709;52.396;16.796;2022-11-20T09:18:17;101149.87;;;1.70;71.33
44044;BME280;29709;52.396;16.796;2022-11-20T09:21:20;101150.52;;;1.73;70.79
44044;BME280;29709;52.396;16.796;2022-11-20T09:24:24;101159.30;;;1.77;70.12
44044;BME280;29709;52.396;16.796;2022-11-20T09:27:29;101148.27;;;1.80;69.91
44044;BME280;29709;52.396;16.796;2022-11-20T09:30:36;101143.52;;;1.84;70.02
44044;BME280;29709;52.396;16.796;2022-11-20T09:33:42;101139.96;;;1.96;69.76
44044;BME280;29709;52.396;16.796;2022-11-20T09:36:47;101147.91;;;1.99;69.61
44044;BME280;29709;52.396;16.796;2022-11-20T09:39:53;101149.01;;;2.09;69.44
44044;BME280;29709;52.396;16.796;2022-11-20T09:46:42;101135.75;;;2.05;67.98
44044;BME280;29709;52.396;16.796;2022-11-20T09:56:20;101130.34;;;2.17;68.10
44044;BME280;29709;52.396;16.796;2022-11-20T09:59:59;101135.66;;;2.19;68.49
44044;BME280;29709;52.396;16.796;2022-11-20T10:03:13;101129.30;;;2.33;68.17
44044;BME280;29709;52.396;16.796;2022-11-20T10:06:28;101131.25;;;2.30;68.19
44044;BME280;29709;52.396;16.796;2022-11-20T10:09:35;101128.84;;;2.39;68.10
44044;BME280;29709;52.396;16.796;2022-11-20T10:29:10;101115.38;;;2.12;67.29
44044;BME280;29709;52.396;16.796;2022-11-20T10:32:18;101115.05;;;2.16;67.55
44044;BME280;29709;52.396;16.796;2022-11-20T10:35:28;101105.30;;;2.26;67.66
44044;BME280;29709;52.396;16.796;2022-11-20T10:38:44;101110.52;;;2.55;67.93
44044;BME280;29709;52.396;16.796;2022-11-20T10:41:51;101110.93;;;2.74;67.21
44044;BME280;29709;52.396;16.796;2022-11-20T10:48:15;101108.31;;;2.85;66.82
44044;BME280;29709;52.396;16.796;2022-11-20T10:54:49;101094.97;;;2.82;66.23
44044;BME280;29709;52.396;16.796;2022-11-20T11:01:17;101098.12;;;2.76;66.46
44044;BME280;29709;52.396;16.796;2022-11-20T11:04:32;101099.21;;;2.74;66.59
44044;BME280;29709;52.396;16.796;2022-11-20T11:07:38;101100.31;;;2.71;66.30
44044;BME280;29709;52.396;16.796;2022-11-20T11:10:53;101105.40;;;2.76;66.07
44044;BME280;29709;52.396;16.796;2022-11-20T11:14:10;101104.20;;;2.67;66.33
44044;BME280;29709;52.396;16.796;2022-11-20T11:20:31;101106.29;;;2.51;66.87
44044;BME280;29709;52.396;16.796;2022-11-20T11:24:03;101099.67;;;2.42;66.47
44044;BME280;29709;52.396;16.796;2022-11-20T11:27:12;101100.08;;;2.49;66.49
44044;BME280;29709;52.396;16.796;2022-11-20T11:30:18;101100.21;;;2.47;66.08
44044;BME280;29709;52.396;16.796;2022-11-20T11:33:27;101094.90;;;2.33;66.17
44044;BME280;29709;52.396;16.796;2022-11-20T11:36:33;101093.69;;;2.24;66.62
44044;BME280;29709;52.396;16.796;2022-11-20T11:39:41;101097.38;;;2.23;66.89
44044;BME280;29709;52.396;16.796;2022-11-20T11:43:18;101090.76;;;2.27;67.18
44044;BME280;29709;52.396;16.796;2022-11-20T11:46:37;101091.09;;;2.23;66.57
44044;BME280;29709;52.396;16.796;2022-11-20T11:49:47;101084.70;;;2.11;66.86
44044;BME280;29709;52.396;16.796;2022-11-20T12:05:50;101071.02;;;2.13;67.20
44044;BME280;29709;52.396;16.796;2022-11-20T12:09:05;101070.46;;;2.08;67.13
44044;BME280;29709;52.396;16.796;2022-11-20T12:15:30;101063.41;;;2.18;67.87
44044;BME280;29709;52.396;16.796;2022-11-20T12:18:33;101056.48;;;2.26;67.79
44044;BME280;29709;52.396;16.796;2022-11-20T12:25:24;101059.64;;;2.33;67.69
44044;BME280;29709;52.396;16.796;2022-11-20T12:31:52;101050.96;;;2.41;68.08
44044;BME280;29709;52.396;16.796;2022-11-20T13:08:02;101025.27;;;2.70;67.40
44044;BME280;29709;52.396;16.796;2022-11-20T13:11:44;101020.54;;;2.61;67.41
44044;BME280;29709;52.396;16.796;2022-11-20T13:15:20;101027.47;;;2.65;67.39
44044;BME280;29709;52.396;16.796;2022-11-20T13:18:07;101016.17;;;2.71;67.34
44044;BME280;29709;52.396;16.796;2022-11-20T13:21:34;101019.21;;;2.67;66.94
44044;BME280;29709;52.396;16.796;2022-11-20T13:24:31;101011.18;;;2.65;67.08
44044;BME280;29709;52.396;16.796;2022-11-20T13:34:33;101003.87;;;2.42;67.43
44044;BME280;29709;52.396;16.796;2022-11-20T13:37:38;101003.95;;;2.53;67.20
44044;BME280;29709;52.396;16.796;2022-11-20T13:40:55;101004.27;;;2.61;67.14
44044;BME280;29709;52.396;16.796;2022-11-20T13:47:20;101001.03;;;2.80;66.88
44044;BME280;29709;52.396;16.796;2022-11-20T14:00:15;100993.67;;;2.82;66.17
44044;BME280;29709;52.396;16.796;2022-11-20T14:03:21;100997.70;;;2.76;66.20
44044;BME280;29709;52.396;16.796;2022-11-20T14:06:30;100999.54;;;2.76;66.03
44044;BME280;29709;52.396;16.796;2022-11-20T14:09:35;100995.61;;;2.80;66.52
44044;BME280;29709;52.396;16.796;2022-11-20T14:13:10;100991.83;;;2.82;66.67
44044;BME280;29709;52.396;16.796;2022-11-20T14:16:21;100996.02;;;2.86;66.51
44044;BME280;29709;52.396;16.796;2022-11-20T14:19:27;100991.16;;;2.79;65.58
44044;BME280;29709;52.396;16.796;2022-11-20T14:22:32;100993.48;;;2.72;65.96
44044;BME280;29709;52.396;16.796;2022-11-20T14:25:42;100992.62;;;2.72;66.71
44044;BME280;29709;52.396;16.796;2022-11-20T14:28:50;100983.25;;;2.76;66.81
44044;BME280;29709;52.396;16.796;2022-11-20T14:35:24;100983.02;;;2.79;66.51
44044;BME280;29709;52.396;16.796;2022-11-20T14:38:28;100975.30;;;2.85;66.83
44044;BME280;29709;52.396;16.796;2022-11-20T14:41:34;100969.75;;;2.87;67.42
44044;BME280;29709;52.396;16.796;2022-11-20T14:45:03;100980.25;;;2.92;67.52
44044;BME280;29709;52.396;16.796;2022-11-20T14:48:09;100971.03;;;2.94;67.66
44044;BME280;29709;52.396;16.796;2022-11-20T14:51:23;100973.05;;;3.03;67.82
44044;BME280;29709;52.396;16.796;2022-11-20T14:54:29;100969.23;;;3.06;68.40
44044;BME280;29709;52.396;16.796;2022-11-20T14:57:35;100968.62;;;3.02;67.95
44044;BME280;29709;52.396;16.796;2022-11-20T15:00:39;100970.22;;;3.05;66.82
44044;BME280;29709;52.396;16.796;2022-11-20T15:03:42;100963.27;;;3.01;66.86
44044;BME280;29709;52.396;16.796;2022-11-20T15:10:27;100956.85;;;3.02;68.17
44044;BME280;29709;52.396;16.796;2022-11-20T15:13:38;100955.24;;;2.99;67.66
44044;BME280;29709;52.396;16.796;2022-11-20T15:16:42;100955.81;;;2.92;67.80
44044;BME280;29709;52.396;16.796;2022-11-20T15:19:45;100947.80;;;2.90;68.03
44044;BME280;29709;52.396;16.796;2022-11-20T15:22:48;100950.62;;;2.88;67.78
44044;BME280;29709;52.396;16.796;2022-11-20T15:25:51;100958.65;;;2.90;67.60
44044;BME280;29709;52.396;16.796;2022-11-20T15:28:54;100956.05;;;2.88;67.42
44044;BME280;29709;52.396;16.796;2022-11-20T15:32:23;100953.90;;;2.81;67.91
44044;BME280;29709;52.396;16.796;2022-11-20T15:35:26;100949.70;;;2.77;67.53
44044;BME280;29709;52.396;16.796;2022-11-20T15:38:29;100948.39;;;2.82;67.58
44044;BME280;29709;52.396;16.796;2022-11-20T15:41:33;100951.11;;;2.82;67.63
44044;BME280;29709;52.396;16.796;2022-11-20T15:44:36;100954.56;;;2.84;68.35
44044;BME280;29709;52.396;16.796;2022-11-20T15:47:39;100955.76;;;2.80;68.61
44044;BME280;29709;52.396;16.796;2022-11-20T15:50:49;100949.14;;;2.84;68.40
44044;BME280;29709;52.396;16.796;2022-11-20T15:53:54;100947.17;;;2.86;67.86
44044;BME280;29709;52.396;16.796;2022-11-20T15:56:58;100950.01;;;2.85;68.24
44044;BME280;29709;52.396;16.796;2022-11-20T16:00:30;100946.42;;;2.84;68.61
44044;BME280;29709;52.396;16.796;2022-11-20T16:03:33;100946.80;;;2.91;68.96
44044;BME280;29709;52.396;16.796;2022-11-20T16:06:36;100951.16;;;2.94;69.00
44044;BME280;29709;52.396;16.796;2022-11-20T16:09:39;100946.60;;;2.94;68.77
44044;BME280;29709;52.396;16.796;2022-11-20T16:12:43;100946.47;;;2.96;67.99
44044;BME280;29709;52.396;16.796;2022-11-20T16:15:59;100940.92;;;2.97;68.08
44044;BME280;29709;52.396;16.796;2022-11-20T16:19:04;100938.46;;;2.94;68.57
44044;BME280;29709;52.396;16.796;2022-11-20T16:22:10;100945.86;;;2.92;68.64
44044;BME280;29709;52.396;16.796;2022-11-20T16:25:39;100936.93;;;2.90;69.20
44044;BME280;29709;52.396;16.796;2022-11-20T16:28:43;100936.19;;;2.88;69.64
44044;BME280;29709;52.396;16.796;2022-11-20T16:31:46;100929.28;;;2.84;69.62
44044;BME280;29709;52.396;16.796;2022-11-20T16:34:49;100935.38;;;2.75;70.55
44044;BME280;29709;52.396;16.796;2022-11-20T16:37:52;100924.98;;;2.69;69.36
44044;BME280;29709;52.396;16.796;2022-11-20T16:41:00;100926.32;;;2.63;68.76
44044;BME280;29709;52.396;16.796;2022-11-20T16:44:09;100919.38;;;2.59;69.08
44044;BME280;29709;52.396;16.796;2022-11-20T16:47:13;100921.45;;;2.55;69.07
44044;BME280;29709;52.396;16.796;2022-11-20T16:50:16;100921.58;;;2.54;68.74
44044;BME280;29709;52.396;16.796;2022-11-20T16:53:45;100923.23;;;2.44;69.27
44044;BME280;29709;52.396;16.796;2022-11-20T16:56:48;100926.07;;;2.42;69.72
44044;BME280;29709;52.396;16.796;2022-11-20T16:59:55;100915.96;;;2.44;69.09
44044;BME280;29709;52.396;16.796;2022-11-20T17:02:58;100918.91;;;2.41;69.50
44044;BME280;29709;52.396;16.796;2022-11-20T17:06:01;100915.73;;;2.47;69.68
44044;BME280;29709;52.396;16.796;2022-11-20T17:09:10;100908.88;;;2.54;69.41
44044;BME280;29709;52.396;16.796;2022-11-20T17:12:13;100901.72;;;2.53;69.26
44044;BME280;29709;52.396;16.796;2022-11-20T17:15:16;100906.41;;;2.51;69.28
44044;BME280;29709;52.396;16.796;2022-11-20T17:18:19;100887.98;;;2.44;69.05
44044;BME280;29709;52.396;16.796;2022-11-20T17:21:22;100890.05;;;2.40;69.51
44044;BME280;29709;52.396;16.796;2022-11-20T17:24:51;100899.26;;;2.38;69.25
44044;BME280;29709;52.396;16.796;2022-11-20T17:27:54;100886.88;;;2.46;69.14
44044;BME280;29709;52.396;16.796;2022-11-20T17:34:12;100887.55;;;2.37;68.67
44044;BME280;29709;52.396;16.796;2022-11-20T17:37:16;100879.12;;;2.29;68.56
44044;BME280;29709;52.396;16.796;2022-11-20T17:40:19;100883.58;;;2.30;69.26
44044;BME280;29709;52.396;16.796;2022-11-20T17:43:22;100890.73;;;2.31;68.97
44044;BME280;29709;52.396;16.796;2022-11-20T17:46:28;100893.32;;;2.33;69.22
44044;BME280;29709;52.396;16.796;2022-11-20T17:50:00;100894.70;;;2.38;69.89
44044;BME280;29709;52.396;16.796;2022-11-20T17:53:03;100896.11;;;2.44;69.21
44044;BME280;29709;52.396;16.796;2022-11-20T17:56:07;100898.59;;;2.47;69.00
44044;BME280;29709;52.396;16.796;2022-11-20T17:59:22;100895.02;;;2.46;69.08
44044;BME280;29709;52.396;16.796;2022-11-20T18:02:25;100886.12;;;2.44;68.97
44044;BME280;29709;52.396;16.796;2022-11-20T18:05:28;100889.70;;;2.45;69.04
44044;BME280;29709;52.396;16.796;2022-11-20T18:08:31;100888.09;;;2.42;69.11
44044;BME280;29709;52.396;16.796;2022-11-20T18:11:37;100887.55;;;2.37;69.17
44044;BME280;29709;52.396;16.796;2022-11-20T18:15:06;100890.08;;;2.27;69.13
44044;BME280;29709;52.396;16.796;2022-11-20T18:18:09;100887.71;;;2.23;69.11
44044;BME280;29709;52.396;16.796;2022-11-20T18:21:13;100887.71;;;2.23;69.13
44044;BME280;29709;52.396;16.796;2022-11-20T18:24:18;100882.72;;;2.29;69.34
44044;BME280;29709;52.396;16.796;2022-11-20T18:27:21;100876.31;;;2.30;68.85
44044;BME280;29709;52.396;16.796;2022-11-20T18:30:25;100885.63;;;2.26;68.66
44044;BME280;29709;52.396;16.796;2022-11-20T18:33:29;100885.12;;;2.21;68.88